Time;durP1;ratioP1;P1;durP2;ratioP2;P2;SDS_P1;SDS_P2;PMS_P1;PMS_P2;Temp;Humidity;BMP_temperature;BMP_pressure;BME280_temperature;BME280_humidity;BME280_pressure;Samples;Min_cycle;Max_cycle;Signal;HPM_P1;HPM_P2
2023/04/11 00:00:17;;;;;;;22.95;9.38;;;;;;;;;;2037279;29;21004;-71
2023/04/11 00:01:38;;;;;;;25.27;10.60;;;;;;;;;;2036919;28;20040;-72
2023/04/11 00:03:02;;;;;;;23.58;10.10;;;;;;;;;;2033408;29;20445;-71
2023/04/11 00:04:24;;;;;;;30.17;10.43;;;;;;;;;;2032747;29;20048;-71
2023/04/11 00:05:45;;;;;;;34.55;10.85;;;;;;;;;;2034331;29;20058;-71
2023/04/11 00:07:06;;;;;;;26.73;10.53;;;;;;;;;;2035922;29;20078;-71
2023/04/11 00:08:27;;;;;;;25.67;8.77;;;;;;;;;;2035528;29;20545;-71
2023/04/11 00:09:48;;;;;;;26.70;10.32;;;;;;;;;;2035414;29;20556;-71
2023/04/11 00:11:09;;;;;;;31.08;11.02;;;;;;;;;;2034479;29;20024;-71
2023/04/11 00:12:30;;;;;;;22.80;9.48;;;;;;;;;;2037348;28;20566;-72
2023/04/11 00:13:52;;;;;;;19.48;8.68;;;;;;;;;;2039242;29;20055;-71
2023/04/11 00:15:14;;;;;;;26.15;11.27;;;;;;;;;;2039303;29;20040;-71
2023/04/11 00:16:35;;;;;;;28.50;9.95;;;;;;;;;;2036614;29;20084;-71
2023/04/11 00:17:57;;;;;;;23.48;9.13;;;;;;;;;;2038532;29;20435;-72
2023/04/11 00:19:22;;;;;;;29.58;10.18;;;;;;;;;;2035975;29;20044;-71
2023/04/11 00:20:43;;;;;;;25.33;9.57;;;;;;;;;;2036420;29;20087;-71
2023/04/11 00:22:04;;;;;;;24.27;9.90;;;;;;;;;;2034235;28;20122;-71
2023/04/11 00:23:24;;;;;;;30.63;10.55;;;;;;;;;;2035712;29;20031;-72
2023/04/11 00:24:45;;;;;;;29.10;9.90;;;;;;;;;;2036761;29;20600;-71
2023/04/11 00:26:07;;;;;;;35.17;10.55;;;;;;;;;;2034389;29;20047;-71
2023/04/11 00:27:28;;;;;;;25.42;9.52;;;;;;;;;;2037312;29;20423;-72
2023/04/11 00:28:49;;;;;;;27.63;9.95;;;;;;;;;;2036342;29;20534;-71
2023/04/11 00:30:10;;;;;;;28.20;10.13;;;;;;;;;;2038169;29;20059;-72
2023/04/11 00:31:31;;;;;;;28.58;11.10;;;;;;;;;;2032726;29;20107;-71
2023/04/11 00:32:51;;;;;;;21.90;9.38;;;;;;;;;;2036934;29;20396;-72
2023/04/11 00:34:12;;;;;;;30.00;10.18;;;;;;;;;;2034209;29;20597;-71
2023/04/11 00:35:34;;;;;;;27.75;10.07;;;;;;;;;;2035547;29;20076;-71
2023/04/11 00:36:54;;;;;;;27.85;9.38;;;;;;;;;;2033844;29;20067;-71
2023/04/11 00:38:15;;;;;;;35.15;10.60;;;;;;;;;;2037794;29;20023;-71
2023/04/11 00:39:37;;;;;;;31.95;11.07;;;;;;;;;;2032256;29;20023;-71
2023/04/11 00:40:58;;;;;;;29.83;9.50;;;;;;;;;;2035552;29;20035;-71
2023/04/11 00:42:18;;;;;;;32.65;10.43;;;;;;;;;;2034040;28;20040;-71
2023/04/11 00:43:39;;;;;;;31.38;11.00;;;;;;;;;;2038978;29;20036;-71
2023/04/11 00:45:00;;;;;;;33.42;9.63;;;;;;;;;;2035176;29;20085;-71
2023/04/11 00:46:21;;;;;;;32.40;10.35;;;;;;;;;;2032138;29;20543;-71
2023/04/11 00:47:42;;;;;;;31.70;10.45;;;;;;;;;;2034263;29;20103;-71
2023/04/11 00:49:03;;;;;;;41.50;12.30;;;;;;;;;;2042943;29;20376;-71
2023/04/11 00:50:25;;;;;;;28.15;10.25;;;;;;;;;;2033123;29;20066;-71
2023/04/11 00:51:45;;;;;;;35.45;11.30;;;;;;;;;;2031882;28;20544;-71
2023/04/11 00:53:07;;;;;;;29.25;10.48;;;;;;;;;;2037217;29;20059;-71
2023/04/11 00:54:29;;;;;;;32.30;10.30;;;;;;;;;;2033994;29;20138;-71
2023/04/11 00:55:50;;;;;;;31.70;10.63;;;;;;;;;;2040435;29;20036;-71
2023/04/11 00:57:12;;;;;;;32.33;11.38;;;;;;;;;;2035175;29;20099;-72
2023/04/11 00:58:33;;;;;;;39.65;11.00;;;;;;;;;;2031042;29;20057;-71
2023/04/11 00:59:54;;;;;;;37.80;10.65;;;;;;;;;;2030292;29;20103;-71
2023/04/11 01:01:15;;;;;;;29.07;9.47;;;;;;;;;;2036423;29;20071;-74
2023/04/11 01:02:41;;;;;;;31.20;10.32;;;;;;;;;;2037782;28;20484;-74
2023/04/11 01:04:03;;;;;;;39.00;11.55;;;;;;;;;;2032525;29;20047;-74
2023/04/11 01:05:25;;;;;;;35.42;10.82;;;;;;;;;;2034858;29;20055;-74
2023/04/11 01:06:48;;;;;;;37.30;11.38;;;;;;;;;;2033333;29;20559;-74
2023/04/11 01:08:10;;;;;;;34.00;11.57;;;;;;;;;;2037159;29;20103;-74
2023/04/11 01:09:31;;;;;;;34.35;11.57;;;;;;;;;;2036087;29;20381;-73
2023/04/11 01:10:52;;;;;;;37.22;11.23;;;;;;;;;;2037544;29;20423;-74
2023/04/11 01:12:13;;;;;;;35.45;11.15;;;;;;;;;;2034205;28;20396;-74
2023/04/11 01:13:35;;;;;;;28.58;10.93;;;;;;;;;;2037065;29;20035;-73
2023/04/11 01:14:56;;;;;;;46.33;13.90;;;;;;;;;;2037044;29;20078;-74
2023/04/11 01:16:20;;;;;;;28.10;10.60;;;;;;;;;;2035547;29;20028;-74
2023/04/11 01:17:41;;;;;;;28.40;10.95;;;;;;;;;;2036751;29;20150;-75
2023/04/11 01:19:02;;;;;;;39.97;12.43;;;;;;;;;;2043722;29;20031;-74
2023/04/11 01:20:25;;;;;;;32.90;11.98;;;;;;;;;;2034272;29;20040;-75
2023/04/11 01:21:47;;;;;;;39.80;11.35;;;;;;;;;;2033796;28;20040;-74
2023/04/11 01:23:09;;;;;;;;;;;;;;;;;;2033234;29;20561;-73
2023/04/11 01:24:30;;;;;;;27.58;8.85;;;;;;;;;;2037074;29;19918;-73
2023/04/11 01:25:51;;;;;;;33.50;10.60;;;;;;;;;;2037827;29;20054;-73
2023/04/11 01:27:12;;;;;;;28.05;9.65;;;;;;;;;;2039499;29;20446;-73
2023/04/11 01:28:33;;;;;;;30.47;10.53;;;;;;;;;;2035219;29;20032;-72
2023/04/11 01:29:54;;;;;;;29.38;10.38;;;;;;;;;;2038190;29;20439;-73
2023/04/11 01:31:15;;;;;;;27.00;8.57;;;;;;;;;;2038171;29;20134;-74
2023/04/11 01:32:36;;;;;;;30.52;9.77;;;;;;;;;;2035526;29;20040;-73
2023/04/11 01:33:57;;;;;;;32.38;10.65;;;;;;;;;;2040395;29;20042;-74
2023/04/11 01:35:18;;;;;;;28.23;9.65;;;;;;;;;;2038787;29;20047;-74
2023/04/11 01:36:42;;;;;;;31.13;11.60;;;;;;;;;;2035015;29;20024;-74
2023/04/11 01:38:04;;;;;;;31.15;9.98;;;;;;;;;;2032718;29;20028;-73
2023/04/11 01:39:24;;;;;;;34.17;11.07;;;;;;;;;;2033925;29;20054;-73
2023/04/11 01:40:46;;;;;;;34.08;9.27;;;;;;;;;;2036200;29;20522;-73
2023/04/11 01:42:07;;;;;;;30.63;9.55;;;;;;;;;;2033198;28;20341;-73
2023/04/11 01:43:28;;;;;;;27.92;10.40;;;;;;;;;;2038243;29;20237;-73
2023/04/11 01:44:50;;;;;;;41.15;10.77;;;;;;;;;;2037395;29;20304;-73
2023/04/11 01:46:11;;;;;;;38.40;10.80;;;;;;;;;;2034222;29;20036;-73
2023/04/11 01:47:32;;;;;;;26.00;8.70;;;;;;;;;;2033991;29;20569;-73
2023/04/11 01:48:54;;;;;;;29.88;9.38;;;;;;;;;;2033472;29;20598;-73
2023/04/11 01:50:14;;;;;;;38.63;10.20;;;;;;;;;;2042811;28;20083;-73
2023/04/11 01:51:35;;;;;;;33.47;10.23;;;;;;;;;;2037011;29;20505;-73
2023/04/11 01:52:56;;;;;;;38.05;11.80;;;;;;;;;;2032998;29;20040;-73
2023/04/11 01:54:17;;;;;;;35.80;10.75;;;;;;;;;;2031059;29;20027;-73
2023/04/11 01:55:38;;;;;;;39.40;10.77;;;;;;;;;;2033504;29;20429;-73
2023/04/11 01:57:00;;;;;;;27.20;10.07;;;;;;;;;;2036327;29;20040;-74
2023/04/11 01:58:21;;;;;;;32.80;10.82;;;;;;;;;;2033181;29;20083;-73
2023/04/11 01:59:41;;;;;;;41.42;9.98;;;;;;;;;;2033306;29;20036;-74
2023/04/11 02:01:02;;;;;;;26.23;8.77;;;;;;;;;;2034845;29;20515;-73
2023/04/11 02:02:24;;;;;;;32.00;10.63;;;;;;;;;;2038905;28;20047;-73
2023/04/11 02:03:45;;;;;;;37.72;10.60;;;;;;;;;;2033580;29;20216;-71
2023/04/11 02:05:06;;;;;;;30.33;9.80;;;;;;;;;;2032764;29;20040;-70
2023/04/11 02:06:27;;;;;;;32.55;9.55;;;;;;;;;;2037589;29;20091;-71
2023/04/11 02:07:48;;;;;;;37.25;10.55;;;;;;;;;;2035823;29;20439;-71
2023/04/11 02:09:09;;;;;;;31.98;10.63;;;;;;;;;;2031435;29;20047;-71
2023/04/11 02:10:30;;;;;;;37.50;10.23;;;;;;;;;;2029352;29;20035;-70
2023/04/11 02:11:51;;;;;;;29.88;10.35;;;;;;;;;;2032468;29;20043;-70
2023/04/11 02:13:12;;;;;;;37.25;12.07;;;;;;;;;;2031504;29;20106;-70
2023/04/11 02:14:40;;;;;;;45.15;11.23;;;;;;;;;;2033510;29;20696;-71
2023/04/11 02:16:05;;;;;;;37.70;11.18;;;;;;;;;;2036247;29;20043;-71
2023/04/11 02:17:29;;;;;;;43.15;12.35;;;;;;;;;;2033727;29;20142;-71
2023/04/11 02:18:51;;;;;;;39.47;11.57;;;;;;;;;;2034842;29;20443;-71
2023/04/11 02:20:12;;;;;;;32.17;10.48;;;;;;;;;;2033363;29;20083;-71
2023/04/11 02:21:33;;;;;;;39.53;11.02;;;;;;;;;;2035279;29;20028;-70
2023/04/11 02:22:54;;;;;;;43.97;12.20;;;;;;;;;;2031024;29;20475;-70
2023/04/11 02:24:15;;;;;;;32.45;10.40;;;;;;;;;;2034021;29;20054;-70
2023/04/11 02:25:37;;;;;;;32.00;9.98;;;;;;;;;;2037173;29;20036;-70
2023/04/11 02:26:59;;;;;;;33.20;10.55;;;;;;;;;;2034556;29;20082;-70
2023/04/11 02:28:21;;;;;;;31.15;11.05;;;;;;;;;;2034989;29;20107;-70
2023/04/11 02:29:42;;;;;;;42.53;11.43;;;;;;;;;;2034444;29;20107;-70
2023/04/11 02:31:03;;;;;;;32.72;10.23;;;;;;;;;;2033748;29;20036;-70
2023/04/11 02:32:25;;;;;;;32.03;9.68;;;;;;;;;;2038169;28;20777;-70
2023/04/11 02:33:45;;;;;;;32.85;10.45;;;;;;;;;;2032184;29;20035;-70
2023/04/11 02:35:06;;;;;;;34.17;10.50;;;;;;;;;;2031291;29;20440;-70
2023/04/11 02:36:28;;;;;;;30.05;10.23;;;;;;;;;;2035181;29;20028;-71
2023/04/11 02:37:49;;;;;;;41.15;10.05;;;;;;;;;;2032720;29;20032;-71
2023/04/11 02:39:11;;;;;;;31.00;10.38;;;;;;;;;;2033929;29;20048;-70
2023/04/11 02:40:31;;;;;;;22.63;8.88;;;;;;;;;;2031264;29;20032;-71
2023/04/11 02:41:52;;;;;;;34.95;9.55;;;;;;;;;;2033494;29;20083;-70
2023/04/11 02:43:15;;;;;;;34.03;10.55;;;;;;;;;;2031396;29;20574;-70
2023/04/11 02:44:35;;;;;;;31.63;9.10;;;;;;;;;;2029121;29;20043;-71
2023/04/11 02:45:56;;;;;;;38.58;10.90;;;;;;;;;;2035064;29;20040;-70
2023/04/11 02:47:17;;;;;;;25.42;9.35;;;;;;;;;;2033372;29;20391;-70
2023/04/11 02:48:38;;;;;;;30.23;11.07;;;;;;;;;;2032330;29;20040;-70
2023/04/11 02:49:59;;;;;;;28.92;8.18;;;;;;;;;;2034466;29;20043;-70
2023/04/11 02:51:20;;;;;;;26.38;9.52;;;;;;;;;;2035682;29;20506;-70
2023/04/11 02:52:41;;;;;;;36.97;11.18;;;;;;;;;;2043921;28;20050;-70
2023/04/11 02:54:03;;;;;;;29.00;9.05;;;;;;;;;;2037333;29;20043;-71
2023/04/11 02:55:25;;;;;;;31.65;8.27;;;;;;;;;;2032140;29;20174;-71
2023/04/11 02:56:46;;;;;;;29.80;9.52;;;;;;;;;;2035318;29;20040;-70
2023/04/11 02:58:07;;;;;;;32.92;9.77;;;;;;;;;;2033483;29;20023;-71
2023/04/11 02:59:28;;;;;;;33.90;10.05;;;;;;;;;;2034669;29;20120;-71
2023/04/11 03:00:50;;;;;;;29.33;8.57;;;;;;;;;;2036397;29;20056;-70
2023/04/11 03:02:11;;;;;;;33.47;9.93;;;;;;;;;;2031408;29;20401;-70
2023/04/11 03:03:32;;;;;;;30.40;10.63;;;;;;;;;;2033047;29;20043;-71
2023/04/11 03:04:52;;;;;;;31.83;9.70;;;;;;;;;;2037981;29;20036;-70
2023/04/11 03:06:13;;;;;;;44.90;10.57;;;;;;;;;;2035783;29;20036;-70
2023/04/11 03:07:37;;;;;;;30.27;9.40;;;;;;;;;;2035294;29;20098;-71
2023/04/11 03:08:58;;;;;;;30.05;9.45;;;;;;;;;;2036690;29;20036;-70
2023/04/11 03:10:19;;;;;;;33.25;9.20;;;;;;;;;;2036533;29;20447;-70
2023/04/11 03:11:40;;;;;;;24.60;8.45;;;;;;;;;;2042411;29;20023;-70
2023/04/11 03:13:01;;;;;;;34.75;10.82;;;;;;;;;;2036670;28;20052;-70
2023/04/11 03:14:21;;;;;;;31.35;9.73;;;;;;;;;;2034062;29;20031;-70
2023/04/11 03:15:42;;;;;;;30.05;10.00;;;;;;;;;;2036099;29;20036;-71
2023/04/11 03:17:03;;;;;;;31.40;9.85;;;;;;;;;;2037896;29;20035;-70
2023/04/11 03:18:24;;;;;;;33.17;7.65;;;;;;;;;;2036190;29;20514;-70
2023/04/11 03:19:45;;;;;;;22.23;7.72;;;;;;;;;;2035046;29;20032;-70
2023/04/11 03:21:09;;;;;;;29.45;9.15;;;;;;;;;;2034542;29;21950;-71
2023/04/11 03:22:30;;;;;;;22.85;8.23;;;;;;;;;;2032975;28;20443;-71
2023/04/11 03:23:50;;;;;;;26.85;8.23;;;;;;;;;;2030585;29;20104;-71
2023/04/11 03:25:11;;;;;;;20.08;8.27;;;;;;;;;;2037192;29;20052;-69
2023/04/11 03:26:32;;;;;;;21.50;8.32;;;;;;;;;;2038113;29;20126;-70
2023/04/11 03:27:53;;;;;;;31.67;8.35;;;;;;;;;;2036744;29;20055;-70
2023/04/11 03:29:15;;;;;;;31.10;8.38;;;;;;;;;;2036767;29;20083;-70
2023/04/11 03:30:39;;;;;;;23.10;7.70;;;;;;;;;;2038546;29;20039;-70
2023/04/11 03:32:00;;;;;;;21.45;8.60;;;;;;;;;;2037166;29;20083;-71
2023/04/11 03:33:20;;;;;;;28.08;9.25;;;;;;;;;;2038851;29;20091;-70
2023/04/11 03:34:41;;;;;;;25.27;8.52;;;;;;;;;;2032593;29;20031;-71
2023/04/11 03:36:02;;;;;;;23.95;9.00;;;;;;;;;;2040399;29;20047;-71
2023/04/11 03:37:23;;;;;;;22.33;8.93;;;;;;;;;;2039780;29;20034;-70
2023/04/11 03:38:44;;;;;;;26.52;8.32;;;;;;;;;;2035782;29;20028;-70
2023/04/11 03:40:07;;;;;;;23.63;7.80;;;;;;;;;;2037949;29;20519;-70
2023/04/11 03:41:28;;;;;;;23.65;7.93;;;;;;;;;;2041310;29;20424;-70
2023/04/11 03:42:49;;;;;;;21.40;8.57;;;;;;;;;;2040156;28;20051;-70
2023/04/11 03:44:10;;;;;;;26.70;9.63;;;;;;;;;;2033519;29;20075;-70
2023/04/11 03:45:31;;;;;;;23.90;8.88;;;;;;;;;;2034037;29;20087;-70
2023/04/11 03:46:52;;;;;;;24.13;8.82;;;;;;;;;;2031826;29;20028;-70
2023/04/11 03:48:12;;;;;;;29.63;9.45;;;;;;;;;;2036717;29;20038;-70
2023/04/11 03:49:33;;;;;;;27.27;9.65;;;;;;;;;;2033252;29;20124;-69
2023/04/11 03:50:54;;;;;;;16.67;8.20;;;;;;;;;;2037740;29;20063;-71
2023/04/11 03:52:16;;;;;;;32.38;9.20;;;;;;;;;;2034831;29;20036;-70
2023/04/11 03:53:37;;;;;;;24.55;8.15;;;;;;;;;;2036806;29;20039;-70
2023/04/11 03:54:58;;;;;;;24.33;7.95;;;;;;;;;;2035527;29;20107;-70
2023/04/11 03:56:19;;;;;;;20.75;8.30;;;;;;;;;;2037376;29;20024;-71
2023/04/11 03:57:40;;;;;;;20.98;7.50;;;;;;;;;;2040599;29;20039;-70
2023/04/11 03:59:01;;;;;;;23.10;8.25;;;;;;;;;;2036975;29;20032;-70
2023/04/11 04:00:22;;;;;;;20.40;7.55;;;;;;;;;;2038339;29;20138;-70
2023/04/11 04:01:43;;;;;;;17.80;7.70;;;;;;;;;;2038052;29;20737;-70
2023/04/11 04:03:05;;;;;;;19.90;7.78;;;;;;;;;;2034328;28;20092;-70
2023/04/11 04:04:26;;;;;;;25.77;8.57;;;;;;;;;;2036512;29;20044;-70
2023/04/11 04:05:47;;;;;;;31.63;10.18;;;;;;;;;;2037445;28;20145;-70
2023/04/11 04:07:08;;;;;;;14.63;7.28;;;;;;;;;;2036572;29;20087;-70
2023/04/11 04:08:29;;;;;;;19.70;7.78;;;;;;;;;;2033812;29;20036;-70
2023/04/11 04:09:51;;;;;;;26.40;9.38;;;;;;;;;;2033070;29;20039;-70
2023/04/11 04:11:12;;;;;;;19.95;8.55;;;;;;;;;;2040936;28;20086;-70
2023/04/11 04:12:33;;;;;;;21.88;8.95;;;;;;;;;;2037786;28;20111;-71
2023/04/11 04:13:54;;;;;;;21.88;8.77;;;;;;;;;;2033561;29;20091;-70
2023/04/11 04:15:15;;;;;;;18.85;7.88;;;;;;;;;;2034961;29;20107;-70
2023/04/11 04:16:35;;;;;;;33.67;9.85;;;;;;;;;;2033302;29;20028;-70
2023/04/11 04:17:56;;;;;;;15.90;8.07;;;;;;;;;;2032050;29;20079;-70
2023/04/11 04:19:17;;;;;;;24.75;9.23;;;;;;;;;;2034711;29;20044;-70
2023/04/11 04:20:40;;;;;;;25.20;8.70;;;;;;;;;;2035206;29;20106;-70
2023/04/11 04:22:00;;;;;;;22.20;8.68;;;;;;;;;;2031755;29;20437;-70
2023/04/11 04:23:22;;;;;;;21.30;9.10;;;;;;;;;;2034038;29;20059;-70
2023/04/11 04:24:46;;;;;;;14.38;6.95;;;;;;;;;;2036511;29;20524;-70
2023/04/11 04:26:07;;;;;;;23.55;8.27;;;;;;;;;;2030614;29;20040;-70
2023/04/11 04:27:28;;;;;;;26.27;8.90;;;;;;;;;;2035110;29;20095;-72
2023/04/11 04:28:49;;;;;;;20.75;8.55;;;;;;;;;;2033753;29;20062;-71
2023/04/11 04:30:11;;;;;;;23.58;9.75;;;;;;;;;;2033539;29;20063;-70
2023/04/11 04:31:32;;;;;;;23.10;8.40;;;;;;;;;;2034244;29;20083;-70
2023/04/11 04:32:57;;;;;;;23.90;8.80;;;;;;;;;;2035845;28;20044;-70
2023/04/11 04:34:20;;;;;;;21.55;8.57;;;;;;;;;;2037608;29;20087;-70
2023/04/11 04:35:41;;;;;;;26.15;8.88;;;;;;;;;;2036611;29;20090;-70
2023/04/11 04:37:02;;;;;;;21.63;7.90;;;;;;;;;;2037292;29;20158;-70
2023/04/11 04:38:24;;;;;;;23.38;8.15;;;;;;;;;;2035887;29;20511;-70
2023/04/11 04:39:49;;;;;;;22.67;9.00;;;;;;;;;;2035489;29;20035;-70
2023/04/11 04:41:16;;;;;;;26.25;10.05;;;;;;;;;;2032889;29;20942;-70
2023/04/11 04:42:40;;;;;;;23.23;8.10;;;;;;;;;;2031222;28;20476;-70
2023/04/11 04:44:03;;;;;;;15.50;7.05;;;;;;;;;;2036811;29;20360;-70
2023/04/11 04:45:25;;;;;;;14.93;7.97;;;;;;;;;;2038607;29;20487;-70
2023/04/11 04:46:45;;;;;;;20.10;7.38;;;;;;;;;;2039138;29;20042;-70
2023/04/11 04:48:06;;;;;;;23.38;7.70;;;;;;;;;;2039136;29;20040;-70
2023/04/11 04:49:27;;;;;;;19.67;8.30;;;;;;;;;;2037395;29;20412;-70
2023/04/11 04:50:48;;;;;;;14.93;7.75;;;;;;;;;;2044579;29;20035;-70
2023/04/11 04:52:09;;;;;;;16.00;7.35;;;;;;;;;;2033158;29;20119;-70
2023/04/11 04:53:33;;;;;;;25.63;8.90;;;;;;;;;;2033804;29;20437;-70
2023/04/11 04:54:56;;;;;;;20.23;7.97;;;;;;;;;;2034079;29;20083;-70
2023/04/11 04:56:17;;;;;;;19.58;8.57;;;;;;;;;;2037245;29;20056;-70
2023/04/11 04:57:38;;;;;;;31.02;10.55;;;;;;;;;;2034741;29;20032;-70
2023/04/11 04:58:59;;;;;;;25.08;8.77;;;;;;;;;;2032020;29;20127;-70
2023/04/11 05:00:20;;;;;;;19.83;7.90;;;;;;;;;;2034192;29;20048;-70
2023/04/11 05:01:41;;;;;;;24.88;9.02;;;;;;;;;;2038021;29;20047;-71
2023/04/11 05:03:04;;;;;;;16.70;7.70;;;;;;;;;;2035223;28;20099;-70
2023/04/11 05:04:25;;;;;;;29.50;9.35;;;;;;;;;;2036451;29;20605;-70
2023/04/11 05:05:46;;;;;;;19.98;8.68;;;;;;;;;;2032956;29;20044;-70
2023/04/11 05:07:07;;;;;;;17.60;8.00;;;;;;;;;;2044603;29;20047;-70
2023/04/11 05:08:27;;;;;;;19.67;7.95;;;;;;;;;;2038926;29;20502;-69
2023/04/11 05:09:48;;;;;;;24.80;9.18;;;;;;;;;;2035836;29;20047;-70
2023/04/11 05:11:09;;;;;;;14.20;7.30;;;;;;;;;;2035666;29;20032;-70
2023/04/11 05:12:30;;;;;;;19.00;8.25;;;;;;;;;;2038917;29;20436;-71
2023/04/11 05:13:51;;;;;;;19.38;8.73;;;;;;;;;;2035294;29;20043;-70
2023/04/11 05:15:13;;;;;;;19.90;8.45;;;;;;;;;;2033729;29;20032;-70
2023/04/11 05:16:36;;;;;;;;;;;;;;;;;;2037082;29;20086;-70
2023/04/11 05:17:57;;;;;;;23.95;8.20;;;;;;;;;;2035727;29;20255;-70
2023/04/11 05:19:18;;;;;;;21.67;8.45;;;;;;;;;;2034608;29;20091;-70
2023/04/11 05:20:39;;;;;;;26.20;9.48;;;;;;;;;;2034708;29;20044;-71
2023/04/11 05:22:00;;;;;;;35.22;9.20;;;;;;;;;;2033823;29;20490;-70
2023/04/11 05:23:20;;;;;;;24.33;9.85;;;;;;;;;;2038028;28;20123;-70
2023/04/11 05:24:41;;;;;;;20.52;8.27;;;;;;;;;;2034816;29;20035;-70
2023/04/11 05:26:02;;;;;;;27.58;8.88;;;;;;;;;;2037575;29;20721;-70
2023/04/11 05:27:23;;;;;;;15.57;7.35;;;;;;;;;;2036429;29;20043;-70
2023/04/11 05:28:44;;;;;;;20.42;6.97;;;;;;;;;;2039644;29;20035;-70
2023/04/11 05:30:05;;;;;;;19.98;6.55;;;;;;;;;;2040184;29;20032;-70
2023/04/11 05:31:27;;;;;;;20.20;7.68;;;;;;;;;;2034966;29;20459;-69
2023/04/11 05:32:48;;;;;;;18.05;7.75;;;;;;;;;;2036850;28;20031;-70
2023/04/11 05:34:09;;;;;;;16.25;8.07;;;;;;;;;;2037265;29;20492;-69
2023/04/11 05:35:30;;;;;;;13.98;6.88;;;;;;;;;;2033278;29;20039;-69
2023/04/11 05:36:51;;;;;;;19.75;7.78;;;;;;;;;;2040250;29;20044;-69
2023/04/11 05:38:12;;;;;;;14.45;6.75;;;;;;;;;;2033293;29;20040;-69
2023/04/11 05:39:33;;;;;;;15.23;6.53;;;;;;;;;;2032488;29;20029;-69
2023/04/11 05:40:54;;;;;;;16.85;7.40;;;;;;;;;;2032002;29;20036;-69
2023/04/11 05:42:16;;;;;;;21.00;8.13;;;;;;;;;;2033456;29;20484;-69
2023/04/11 05:43:37;;;;;;;;;;;;;;;;;;2036417;28;20047;-69
2023/04/11 05:44:58;;;;;;;27.17;7.63;;;;;;;;;;2034498;29;19919;-68
2023/04/11 05:46:19;;;;;;;21.30;7.82;;;;;;;;;;2031074;29;20103;-69
2023/04/11 05:47:40;;;;;;;23.10;7.97;;;;;;;;;;2032933;29;20031;-70
2023/04/11 05:49:01;;;;;;;18.67;7.75;;;;;;;;;;2035181;29;20057;-69
2023/04/11 05:50:22;;;;;;;24.38;7.50;;;;;;;;;;2038105;29;20044;-70
2023/04/11 05:51:43;;;;;;;23.25;8.75;;;;;;;;;;2036346;29;20103;-69
2023/04/11 05:53:04;;;;;;;23.88;7.50;;;;;;;;;;2035635;28;20620;-70
2023/04/11 05:54:32;;;;;;;15.02;7.93;;;;;;;;;;2034149;29;20033;-69
2023/04/11 05:55:53;;;;;;;25.50;8.73;;;;;;;;;;2036089;29;20066;-69
2023/04/11 05:57:16;;;;;;;25.52;8.60;;;;;;;;;;2037259;29;20519;-70
2023/04/11 05:58:37;;;;;;;24.90;7.72;;;;;;;;;;2035548;29;20075;-69
2023/04/11 06:00:00;;;;;;;16.60;7.75;;;;;;;;;;2036902;29;20487;-71
2023/04/11 06:01:22;;;;;;;14.77;7.40;;;;;;;;;;2038577;29;20080;-69
2023/04/11 06:02:43;;;;;;;18.67;8.35;;;;;;;;;;2034967;28;20408;-70
2023/04/11 06:04:04;;;;;;;31.27;8.85;;;;;;;;;;2033825;29;20095;-70
2023/04/11 06:05:25;;;;;;;26.30;8.15;;;;;;;;;;2033855;29;20116;-71
2023/04/11 06:06:46;;;;;;;21.95;7.72;;;;;;;;;;2039519;29;20059;-70
2023/04/11 06:08:07;;;;;;;25.08;7.32;;;;;;;;;;2038991;29;20032;-70
2023/04/11 06:09:28;;;;;;;22.88;8.38;;;;;;;;;;2033012;29;20469;-70
2023/04/11 06:10:49;;;;;;;25.45;7.60;;;;;;;;;;2033242;29;20072;-70
2023/04/11 06:12:10;;;;;;;27.80;7.32;;;;;;;;;;2042114;29;20039;-70
2023/04/11 06:13:31;;;;;;;15.18;7.35;;;;;;;;;;2035392;29;20126;-70
2023/04/11 06:14:52;;;;;;;19.42;7.63;;;;;;;;;;2033095;29;20082;-71
2023/04/11 06:16:13;;;;;;;23.10;7.70;;;;;;;;;;2038596;29;20431;-70
2023/04/11 06:17:34;;;;;;;20.08;7.25;;;;;;;;;;2036762;29;20036;-70
2023/04/11 06:18:55;;;;;;;19.92;7.47;;;;;;;;;;2041161;29;20036;-70
2023/04/11 06:20:16;;;;;;;18.00;6.13;;;;;;;;;;2040192;29;20356;-70
2023/04/11 06:21:36;;;;;;;13.48;6.38;;;;;;;;;;2039173;29;20039;-70
2023/04/11 06:22:59;;;;;;;18.73;7.78;;;;;;;;;;2038954;28;20416;-69
2023/04/11 06:24:33;;;;;;;13.52;7.13;;;;;;;;;;2038738;29;20054;-70
2023/04/11 06:25:54;;;;;;;18.88;7.53;;;;;;;;;;2036799;29;20040;-70
2023/04/11 06:27:15;;;;;;;17.05;7.00;;;;;;;;;;2032252;29;20059;-70
2023/04/11 06:28:36;;;;;;;24.13;7.05;;;;;;;;;;2036858;29;20071;-69
2023/04/11 06:29:56;;;;;;;15.32;6.22;;;;;;;;;;2036330;29;20043;-71
2023/04/11 06:31:17;;;;;;;19.95;7.03;;;;;;;;;;2037328;29;20598;-70
2023/04/11 06:32:38;;;;;;;20.23;7.80;;;;;;;;;;2036414;29;20067;-71
2023/04/11 06:34:00;;;;;;;21.10;6.93;;;;;;;;;;2037734;29;20040;-71
2023/04/11 06:35:23;;;;;;;21.10;8.25;;;;;;;;;;2029987;29;20028;-71
2023/04/11 06:36:46;;;;;;;21.88;8.40;;;;;;;;;;2031252;29;20051;-72
2023/04/11 06:38:07;;;;;;;23.92;8.18;;;;;;;;;;2035294;29;20028;-71
2023/04/11 06:39:29;;;;;;;25.33;7.78;;;;;;;;;;2035933;29;20031;-72
2023/04/11 06:40:51;;;;;;;25.67;7.95;;;;;;;;;;2035845;29;20044;-72
2023/04/11 06:42:11;;;;;;;22.63;6.85;;;;;;;;;;2034485;29;20037;-72
2023/04/11 06:43:32;;;;;;;25.83;8.05;;;;;;;;;;2038344;28;20043;-72
2023/04/11 06:44:53;;;;;;;26.92;7.50;;;;;;;;;;2036583;29;20708;-71
2023/04/11 06:46:14;;;;;;;36.28;10.07;;;;;;;;;;2030739;29;20044;-71
2023/04/11 06:47:35;;;;;;;20.02;7.72;;;;;;;;;;2030741;29;20051;-71
2023/04/11 06:48:56;;;;;;;27.60;9.45;;;;;;;;;;2040994;28;20039;-71
2023/04/11 06:50:17;;;;;;;16.90;7.55;;;;;;;;;;2041886;29;20475;-70
2023/04/11 06:51:38;;;;;;;23.58;7.63;;;;;;;;;;2031689;29;20102;-71
2023/04/11 06:52:59;;;;;;;15.10;7.40;;;;;;;;;;2033584;28;20063;-72
2023/04/11 06:54:20;;;;;;;20.83;6.50;;;;;;;;;;2040535;29;20488;-72
2023/04/11 06:55:41;;;;;;;22.83;7.57;;;;;;;;;;2038221;29;20043;-72
2023/04/11 06:57:02;;;;;;;15.05;6.72;;;;;;;;;;2038310;29;20028;-72
2023/04/11 06:58:23;;;;;;;20.05;6.13;;;;;;;;;;2038684;29;20034;-71
2023/04/11 06:59:44;;;;;;;14.48;6.25;;;;;;;;;;2038323;29;20558;-75
2023/04/11 07:01:08;;;;;;;11.07;4.85;;;;;;;;;;2029419;29;20056;-76
2023/04/11 07:02:30;;;;;;;23.40;6.88;;;;;;;;;;2036009;29;20024;-75
2023/04/11 07:03:52;;;;;;;16.45;5.57;;;;;;;;;;2033280;29;20560;-73
2023/04/11 07:05:13;;;;;;;19.13;5.03;;;;;;;;;;2039193;29;20047;-73
2023/04/11 07:06:34;;;;;;;13.13;5.43;;;;;;;;;;2039224;29;20036;-73
2023/04/11 07:07:55;;;;;;;19.20;6.18;;;;;;;;;;2034914;29;20372;-74
2023/04/11 07:09:16;;;;;;;13.80;5.10;;;;;;;;;;2036978;29;20046;-74
2023/04/11 07:10:37;;;;;;;14.18;5.53;;;;;;;;;;2038630;29;20036;-74
2023/04/11 07:11:58;;;;;;;13.52;5.25;;;;;;;;;;2035100;29;20640;-73
2023/04/11 07:13:20;;;;;;;18.88;6.03;;;;;;;;;;2030624;29;20051;-73
2023/04/11 07:14:40;;;;;;;22.08;4.93;;;;;;;;;;2037175;29;20031;-73
2023/04/11 07:16:01;;;;;;;15.30;4.95;;;;;;;;;;2039700;29;20099;-74
2023/04/11 07:17:23;;;;;;;24.95;5.68;;;;;;;;;;2036072;29;20055;-74
2023/04/11 07:18:43;;;;;;;17.20;5.85;;;;;;;;;;2039892;29;20043;-73
2023/04/11 07:20:08;;;;;;;14.95;5.53;;;;;;;;;;2038996;29;20066;-73
2023/04/11 07:21:30;;;;;;;15.88;4.90;;;;;;;;;;2034239;29;20464;-74
2023/04/11 07:22:51;;;;;;;16.48;6.00;;;;;;;;;;2031486;29;20036;-73
2023/04/11 07:24:12;;;;;;;20.40;5.85;;;;;;;;;;2039998;29;20427;-74
2023/04/11 07:25:33;;;;;;;14.07;5.32;;;;;;;;;;2039295;29;20042;-73
2023/04/11 07:26:57;;;;;;;20.50;5.75;;;;;;;;;;2039385;29;20119;-73
2023/04/11 07:28:18;;;;;;;11.23;5.32;;;;;;;;;;2040307;29;20035;-74
2023/04/11 07:29:39;;;;;;;15.43;5.95;;;;;;;;;;2033013;29;20400;-74
2023/04/11 07:31:00;;;;;;;14.55;5.60;;;;;;;;;;2036515;29;20036;-74
2023/04/11 07:32:21;;;;;;;14.02;5.32;;;;;;;;;;2036139;29;20472;-74
2023/04/11 07:33:42;;;;;;;16.90;5.68;;;;;;;;;;2040830;28;20032;-74
2023/04/11 07:35:03;;;;;;;13.35;5.65;;;;;;;;;;2036951;29;20534;-74
2023/04/11 07:36:25;;;;;;;18.60;7.07;;;;;;;;;;2039566;29;20356;-73
2023/04/11 07:37:46;;;;;;;12.85;5.65;;;;;;;;;;2036527;29;20023;-73
2023/04/11 07:39:08;;;;;;;13.90;5.90;;;;;;;;;;2036243;29;20028;-76
2023/04/11 07:40:29;;;;;;;16.38;7.18;;;;;;;;;;2040135;29;20036;-74
2023/04/11 07:41:50;;;;;;;18.35;6.32;;;;;;;;;;2039743;29;20032;-74
2023/04/11 07:43:11;;;;;;;22.27;6.95;;;;;;;;;;2035150;28;20124;-74
2023/04/11 07:44:31;;;;;;;18.65;6.65;;;;;;;;;;2038292;29;20038;-74
2023/04/11 07:45:53;;;;;;;13.68;6.50;;;;;;;;;;2040077;28;20471;-74
2023/04/11 07:47:14;;;;;;;18.77;6.40;;;;;;;;;;2035668;29;20439;-73
2023/04/11 07:48:35;;;;;;;20.77;7.50;;;;;;;;;;2035806;29;20032;-73
2023/04/11 07:49:57;;;;;;;16.02;6.45;;;;;;;;;;2039979;29;20138;-73
2023/04/11 07:51:18;;;;;;;20.33;6.55;;;;;;;;;;2039141;29;20475;-73
2023/04/11 07:52:39;;;;;;;18.15;6.65;;;;;;;;;;2035316;29;20059;-73
2023/04/11 07:54:00;;;;;;;18.98;6.97;;;;;;;;;;2037241;28;20040;-73
2023/04/11 07:55:20;;;;;;;19.10;7.03;;;;;;;;;;2036872;29;20396;-76
2023/04/11 07:56:41;;;;;;;15.95;7.60;;;;;;;;;;2037508;29;20040;-73
2023/04/11 07:58:02;;;;;;;13.65;7.80;;;;;;;;;;2041726;29;20036;-73
2023/04/11 07:59:23;;;;;;;19.05;7.57;;;;;;;;;;2034102;29;20036;-73